sensor_id;sensor_type;location;lat;lon;timestamp;temperature;humidity
11491;DHT22;5802;52.832;4.758;2022-09-17T00:00:53;22.60;49.40
11491;DHT22;5802;52.832;4.758;2022-09-17T00:03:20;22.60;49.40
11491;DHT22;5802;52.832;4.758;2022-09-17T00:05:47;22.60;49.40
11491;DHT22;5802;52.832;4.758;2022-09-17T00:08:14;22.60;49.40
11491;DHT22;5802;52.832;4.758;2022-09-17T00:10:42;22.60;49.40
11491;DHT22;5802;52.832;4.758;2022-09-17T00:13:12;22.60;49.40
11491;DHT22;5802;52.832;4.758;2022-09-17T00:15:40;22.60;49.40
11491;DHT22;5802;52.832;4.758;2022-09-17T00:18:08;22.60;49.40
11491;DHT22;5802;52.832;4.758;2022-09-17T00:20:38;22.60;49.40
11491;DHT22;5802;52.832;4.758;2022-09-17T00:23:05;22.60;49.40
11491;DHT22;5802;52.832;4.758;2022-09-17T00:25:33;22.60;49.40
11491;DHT22;5802;52.832;4.758;2022-09-17T00:28:00;22.60;49.50
11491;DHT22;5802;52.832;4.758;2022-09-17T00:30:26;22.60;49.50
11491;DHT22;5802;52.832;4.758;2022-09-17T00:32:54;22.60;49.60
11491;DHT22;5802;52.832;4.758;2022-09-17T00:35:24;22.60;49.50
11491;DHT22;5802;52.832;4.758;2022-09-17T00:37:51;22.60;49.60
11491;DHT22;5802;52.832;4.758;2022-09-17T00:40:18;22.60;49.50
11491;DHT22;5802;52.832;4.758;2022-09-17T00:42:45;22.60;49.50
11491;DHT22;5802;52.832;4.758;2022-09-17T00:45:12;22.60;49.50
11491;DHT22;5802;52.832;4.758;2022-09-17T00:47:41;22.60;49.50
11491;DHT22;5802;52.832;4.758;2022-09-17T00:50:15;22.60;49.50
11491;DHT22;5802;52.832;4.758;2022-09-17T00:52:46;22.60;49.60
11491;DHT22;5802;52.832;4.758;2022-09-17T00:55:18;22.60;49.60
11491;DHT22;5802;52.832;4.758;2022-09-17T00:57:47;22.60;49.60
11491;DHT22;5802;52.832;4.758;2022-09-17T01:00:15;22.60;49.60
11491;DHT22;5802;52.832;4.758;2022-09-17T01:02:45;22.60;49.60
11491;DHT22;5802;52.832;4.758;2022-09-17T01:05:14;22.60;49.60
11491;DHT22;5802;52.832;4.758;2022-09-17T01:07:56;22.60;49.60
11491;DHT22;5802;52.832;4.758;2022-09-17T01:10:42;22.60;49.60
11491;DHT22;5802;52.832;4.758;2022-09-17T01:13:20;22.60;49.70
11491;DHT22;5802;52.832;4.758;2022-09-17T01:15:56;22.60;49.70
11491;DHT22;5802;52.832;4.758;2022-09-17T01:18:35;22.60;49.70
11491;DHT22;5802;52.832;4.758;2022-09-17T01:21:31;22.60;49.70
11491;DHT22;5802;52.832;4.758;2022-09-17T01:24:37;22.60;49.60
11491;DHT22;5802;52.832;4.758;2022-09-17T01:33:07;22.60;48.70
11491;DHT22;5802;52.832;4.758;2022-09-17T01:35:44;22.60;48.50
11491;DHT22;5802;52.832;4.758;2022-09-17T01:38:24;22.50;48.40
11491;DHT22;5802;52.832;4.758;2022-09-17T01:40:55;22.50;48.20
11491;DHT22;5802;52.832;4.758;2022-09-17T01:43:29;22.50;48.30
11491;DHT22;5802;52.832;4.758;2022-09-17T01:46:02;22.50;48.10
11491;DHT22;5802;52.832;4.758;2022-09-17T01:48:35;22.50;48.10
11491;DHT22;5802;52.832;4.758;2022-09-17T01:51:06;22.50;48.20
11491;DHT22;5802;52.832;4.758;2022-09-17T01:53:38;22.50;48.20
11491;DHT22;5802;52.832;4.758;2022-09-17T01:56:08;22.50;48.10
11491;DHT22;5802;52.832;4.758;2022-09-17T01:58:39;22.50;48.10
11491;DHT22;5802;52.832;4.758;2022-09-17T02:01:08;22.50;48.10
11491;DHT22;5802;52.832;4.758;2022-09-17T02:03:41;22.50;48.00
11491;DHT22;5802;52.832;4.758;2022-09-17T02:06:11;22.50;48.00
11491;DHT22;5802;52.832;4.758;2022-09-17T02:08:44;22.50;48.00
11491;DHT22;5802;52.832;4.758;2022-09-17T02:11:14;22.50;48.00
11491;DHT22;5802;52.832;4.758;2022-09-17T02:13:45;22.50;48.00
11491;DHT22;5802;52.832;4.758;2022-09-17T02:16:16;22.50;48.00
11491;DHT22;5802;52.832;4.758;2022-09-17T02:18:49;22.50;48.00
11491;DHT22;5802;52.832;4.758;2022-09-17T02:21:26;22.50;48.00
11491;DHT22;5802;52.832;4.758;2022-09-17T02:23:59;22.50;48.00
11491;DHT22;5802;52.832;4.758;2022-09-17T02:26:29;22.50;48.00
11491;DHT22;5802;52.832;4.758;2022-09-17T02:28:59;22.50;48.00
11491;DHT22;5802;52.832;4.758;2022-09-17T02:31:28;22.50;48.00
11491;DHT22;5802;52.832;4.758;2022-09-17T02:33:58;22.50;48.00
11491;DHT22;5802;52.832;4.758;2022-09-17T02:36:27;22.50;47.90
11491;DHT22;5802;52.832;4.758;2022-09-17T02:38:58;22.50;47.90
11491;DHT22;5802;52.832;4.758;2022-09-17T02:41:33;22.50;47.80
11491;DHT22;5802;52.832;4.758;2022-09-17T02:44:08;22.50;47.80
11491;DHT22;5802;52.832;4.758;2022-09-17T02:46:52;22.50;47.90
11491;DHT22;5802;52.832;4.758;2022-09-17T02:49:36;22.50;47.80
11491;DHT22;5802;52.832;4.758;2022-09-17T02:52:11;22.50;47.80
11491;DHT22;5802;52.832;4.758;2022-09-17T02:54:45;22.50;47.80
11491;DHT22;5802;52.832;4.758;2022-09-17T02:57:21;22.50;47.80
11491;DHT22;5802;52.832;4.758;2022-09-17T02:59:52;22.50;47.80
11491;DHT22;5802;52.832;4.758;2022-09-17T03:02:24;22.50;47.70
11491;DHT22;5802;52.832;4.758;2022-09-17T03:04:55;22.50;47.70
11491;DHT22;5802;52.832;4.758;2022-09-17T03:07:22;22.50;47.70
11491;DHT22;5802;52.832;4.758;2022-09-17T03:09:49;22.50;47.70
11491;DHT22;5802;52.832;4.758;2022-09-17T03:12:16;22.50;47.60
11491;DHT22;5802;52.832;4.758;2022-09-17T03:14:43;22.50;47.60
11491;DHT22;5802;52.832;4.758;2022-09-17T03:17:10;22.50;47.60
11491;DHT22;5802;52.832;4.758;2022-09-17T03:19:37;22.50;47.70
11491;DHT22;5802;52.832;4.758;2022-09-17T03:22:05;22.50;47.60
11491;DHT22;5802;52.832;4.758;2022-09-17T03:24:32;22.50;47.60
11491;DHT22;5802;52.832;4.758;2022-09-17T03:26:58;22.50;47.60
11491;DHT22;5802;52.832;4.758;2022-09-17T03:29:25;22.50;47.70
11491;DHT22;5802;52.832;4.758;2022-09-17T03:31:52;22.50;47.60
11491;DHT22;5802;52.832;4.758;2022-09-17T03:34:18;22.50;47.50
11491;DHT22;5802;52.832;4.758;2022-09-17T03:36:45;22.60;47.50
11491;DHT22;5802;52.832;4.758;2022-09-17T03:39:13;22.60;47.50
11491;DHT22;5802;52.832;4.758;2022-09-17T03:41:40;22.60;47.50
11491;DHT22;5802;52.832;4.758;2022-09-17T03:44:07;22.60;47.50
11491;DHT22;5802;52.832;4.758;2022-09-17T03:46:34;22.60;47.50
11491;DHT22;5802;52.832;4.758;2022-09-17T03:49:01;22.50;47.50
11491;DHT22;5802;52.832;4.758;2022-09-17T03:51:28;22.60;47.50
11491;DHT22;5802;52.832;4.758;2022-09-17T03:53:55;22.60;47.40
11491;DHT22;5802;52.832;4.758;2022-09-17T03:56:23;22.60;47.50
11491;DHT22;5802;52.832;4.758;2022-09-17T03:58:51;22.60;47.50
11491;DHT22;5802;52.832;4.758;2022-09-17T04:01:17;22.60;47.50
11491;DHT22;5802;52.832;4.758;2022-09-17T04:03:44;22.60;47.50
11491;DHT22;5802;52.832;4.758;2022-09-17T04:06:11;22.60;47.50
11491;DHT22;5802;52.832;4.758;2022-09-17T04:08:37;22.60;47.50
11491;DHT22;5802;52.832;4.758;2022-09-17T04:11:04;22.60;47.50
11491;DHT22;5802;52.832;4.758;2022-09-17T04:13:33;22.60;47.50
11491;DHT22;5802;52.832;4.758;2022-09-17T04:16:00;22.60;47.50
11491;DHT22;5802;52.832;4.758;2022-09-17T04:18:27;22.60;47.50
11491;DHT22;5802;52.832;4.758;2022-09-17T04:20:54;22.60;47.50
11491;DHT22;5802;52.832;4.758;2022-09-17T04:23:21;22.60;47.40
11491;DHT22;5802;52.832;4.758;2022-09-17T04:25:48;22.60;47.50
11491;DHT22;5802;52.832;4.758;2022-09-17T04:28:14;22.60;47.50
11491;DHT22;5802;52.832;4.758;2022-09-17T04:30:42;22.60;47.50
11491;DHT22;5802;52.832;4.758;2022-09-17T04:33:11;22.60;47.40
11491;DHT22;5802;52.832;4.758;2022-09-17T04:35:37;22.50;47.40
11491;DHT22;5802;52.832;4.758;2022-09-17T04:38:04;22.50;47.30
11491;DHT22;5802;52.832;4.758;2022-09-17T04:40:31;22.60;47.40
11491;DHT22;5802;52.832;4.758;2022-09-17T04:42:58;22.60;47.40
11491;DHT22;5802;52.832;4.758;2022-09-17T04:45:28;22.60;47.40
11491;DHT22;5802;52.832;4.758;2022-09-17T04:47:59;22.50;47.40
11491;DHT22;5802;52.832;4.758;2022-09-17T04:50:26;22.50;47.40
11491;DHT22;5802;52.832;4.758;2022-09-17T04:52:53;22.50;47.40
11491;DHT22;5802;52.832;4.758;2022-09-17T04:55:19;22.50;47.40
11491;DHT22;5802;52.832;4.758;2022-09-17T04:57:46;22.50;47.50
11491;DHT22;5802;52.832;4.758;2022-09-17T05:00:14;22.50;47.40
11491;DHT22;5802;52.832;4.758;2022-09-17T05:02:43;22.50;47.40
11491;DHT22;5802;52.832;4.758;2022-09-17T05:05:11;22.50;47.50
11491;DHT22;5802;52.832;4.758;2022-09-17T05:07:38;22.50;47.40
11491;DHT22;5802;52.832;4.758;2022-09-17T05:10:06;22.50;47.40
11491;DHT22;5802;52.832;4.758;2022-09-17T05:12:33;22.50;47.40
11491;DHT22;5802;52.832;4.758;2022-09-17T05:15:00;22.50;47.40
11491;DHT22;5802;52.832;4.758;2022-09-17T05:17:27;22.50;47.40
11491;DHT22;5802;52.832;4.758;2022-09-17T05:19:54;22.50;47.40
11491;DHT22;5802;52.832;4.758;2022-09-17T05:22:22;22.50;47.40
11491;DHT22;5802;52.832;4.758;2022-09-17T05:24:48;22.50;47.40
11491;DHT22;5802;52.832;4.758;2022-09-17T05:27:15;22.50;47.40
11491;DHT22;5802;52.832;4.758;2022-09-17T05:29:42;22.50;47.40
11491;DHT22;5802;52.832;4.758;2022-09-17T05:32:09;22.50;47.40
11491;DHT22;5802;52.832;4.758;2022-09-17T05:34:36;22.50;47.30
11491;DHT22;5802;52.832;4.758;2022-09-17T05:37:04;22.50;48.00
11491;DHT22;5802;52.832;4.758;2022-09-17T05:39:32;22.50;47.30
11491;DHT22;5802;52.832;4.758;2022-09-17T05:41:59;22.50;47.20
11491;DHT22;5802;52.832;4.758;2022-09-17T05:44:26;22.50;47.20
11491;DHT22;5802;52.832;4.758;2022-09-17T05:46:52;22.60;47.30
11491;DHT22;5802;52.832;4.758;2022-09-17T05:49:19;22.60;47.30
11491;DHT22;5802;52.832;4.758;2022-09-17T05:51:46;22.60;47.20
11491;DHT22;5802;52.832;4.758;2022-09-17T05:54:16;22.60;47.20
11491;DHT22;5802;52.832;4.758;2022-09-17T05:56:47;22.60;47.20
11491;DHT22;5802;52.832;4.758;2022-09-17T05:59:13;22.60;47.20
11491;DHT22;5802;52.832;4.758;2022-09-17T06:01:41;22.60;47.20
11491;DHT22;5802;52.832;4.758;2022-09-17T06:04:08;22.60;47.20
11491;DHT22;5802;52.832;4.758;2022-09-17T06:06:35;22.60;47.20
11491;DHT22;5802;52.832;4.758;2022-09-17T06:09:04;22.70;47.20
11491;DHT22;5802;52.832;4.758;2022-09-17T06:11:31;22.70;47.10
11491;DHT22;5802;52.832;4.758;2022-09-17T06:13:59;22.70;47.10
11491;DHT22;5802;52.832;4.758;2022-09-17T06:16:26;22.70;47.10
11491;DHT22;5802;52.832;4.758;2022-09-17T06:18:54;22.70;47.10
11491;DHT22;5802;52.832;4.758;2022-09-17T06:21:21;22.70;47.10
11491;DHT22;5802;52.832;4.758;2022-09-17T06:23:48;22.70;47.20
11491;DHT22;5802;52.832;4.758;2022-09-17T06:26:15;22.70;47.10
11491;DHT22;5802;52.832;4.758;2022-09-17T06:28:42;22.70;47.10
11491;DHT22;5802;52.832;4.758;2022-09-17T06:31:11;22.70;47.10
11491;DHT22;5802;52.832;4.758;2022-09-17T06:33:38;22.70;47.10
11491;DHT22;5802;52.832;4.758;2022-09-17T06:36:06;22.70;47.10
11491;DHT22;5802;52.832;4.758;2022-09-17T06:38:34;22.70;47.10
11491;DHT22;5802;52.832;4.758;2022-09-17T06:41:02;22.70;47.10
11491;DHT22;5802;52.832;4.758;2022-09-17T06:43:28;22.70;47.20
11491;DHT22;5802;52.832;4.758;2022-09-17T06:45:56;22.70;47.20
11491;DHT22;5802;52.832;4.758;2022-09-17T06:48:25;22.70;47.20
11491;DHT22;5802;52.832;4.758;2022-09-17T06:50:53;22.70;47.20
11491;DHT22;5802;52.832;4.758;2022-09-17T06:53:19;22.70;47.20
11491;DHT22;5802;52.832;4.758;2022-09-17T06:55:46;22.70;47.20
11491;DHT22;5802;52.832;4.758;2022-09-17T06:58:13;22.70;47.10
11491;DHT22;5802;52.832;4.758;2022-09-17T07:00:40;22.70;47.10
11491;DHT22;5802;52.832;4.758;2022-09-17T07:03:08;22.80;47.10
11491;DHT22;5802;52.832;4.758;2022-09-17T07:05:37;22.80;47.10
11491;DHT22;5802;52.832;4.758;2022-09-17T07:08:03;22.80;47.10
11491;DHT22;5802;52.832;4.758;2022-09-17T07:10:30;22.80;47.10
11491;DHT22;5802;52.832;4.758;2022-09-17T07:12:57;22.80;47.00
11491;DHT22;5802;52.832;4.758;2022-09-17T07:15:25;22.80;47.00
11491;DHT22;5802;52.832;4.758;2022-09-17T07:17:52;22.80;47.00
11491;DHT22;5802;52.832;4.758;2022-09-17T07:20:18;22.80;47.10
11491;DHT22;5802;52.832;4.758;2022-09-17T07:22:55;22.80;47.00
11491;DHT22;5802;52.832;4.758;2022-09-17T07:25:22;22.90;47.00
11491;DHT22;5802;52.832;4.758;2022-09-17T07:27:50;22.90;46.90
11491;DHT22;5802;52.832;4.758;2022-09-17T07:30:17;23.00;46.90
11491;DHT22;5802;52.832;4.758;2022-09-17T07:32:43;23.00;46.90
11491;DHT22;5802;52.832;4.758;2022-09-17T07:35:11;23.10;46.80
11491;DHT22;5802;52.832;4.758;2022-09-17T07:37:37;23.10;46.70
11491;DHT22;5802;52.832;4.758;2022-09-17T07:40:07;23.20;46.70
11491;DHT22;5802;52.832;4.758;2022-09-17T07:42:34;23.20;46.60
11491;DHT22;5802;52.832;4.758;2022-09-17T07:45:01;23.30;46.60
11491;DHT22;5802;52.832;4.758;2022-09-17T07:47:27;23.30;46.50
11491;DHT22;5802;52.832;4.758;2022-09-17T07:49:54;23.30;46.40
11491;DHT22;5802;52.832;4.758;2022-09-17T07:52:20;23.40;46.30
11491;DHT22;5802;52.832;4.758;2022-09-17T07:54:47;23.40;46.20
11491;DHT22;5802;52.832;4.758;2022-09-17T07:57:15;23.40;46.20
11491;DHT22;5802;52.832;4.758;2022-09-17T07:59:42;23.40;46.20
11491;DHT22;5802;52.832;4.758;2022-09-17T08:02:11;23.40;46.30
11491;DHT22;5802;52.832;4.758;2022-09-17T08:04:54;23.40;46.40
11491;DHT22;5802;52.832;4.758;2022-09-17T08:07:21;23.50;46.30
11491;DHT22;5802;52.832;4.758;2022-09-17T08:09:48;23.50;46.20
11491;DHT22;5802;52.832;4.758;2022-09-17T08:12:16;23.50;46.20
11491;DHT22;5802;52.832;4.758;2022-09-17T08:14:43;23.60;46.20
11491;DHT22;5802;52.832;4.758;2022-09-17T08:17:10;23.60;46.10
11491;DHT22;5802;52.832;4.758;2022-09-17T08:19:37;23.60;46.10
11491;DHT22;5802;52.832;4.758;2022-09-17T08:22:04;23.60;46.10
11491;DHT22;5802;52.832;4.758;2022-09-17T08:24:36;23.70;46.00
11491;DHT22;5802;52.832;4.758;2022-09-17T08:27:03;23.70;45.90
11491;DHT22;5802;52.832;4.758;2022-09-17T08:29:31;23.70;45.90
11491;DHT22;5802;52.832;4.758;2022-09-17T08:31:58;23.70;45.90
11491;DHT22;5802;52.832;4.758;2022-09-17T08:34:24;23.70;46.00
11491;DHT22;5802;52.832;4.758;2022-09-17T08:36:51;23.70;46.10
11491;DHT22;5802;52.832;4.758;2022-09-17T08:39:17;23.60;46.20
11491;DHT22;5802;52.832;4.758;2022-09-17T08:41:50;23.60;46.20
11491;DHT22;5802;52.832;4.758;2022-09-17T08:44:23;23.60;46.30
11491;DHT22;5802;52.832;4.758;2022-09-17T08:46:57;23.60;46.40
11491;DHT22;5802;52.832;4.758;2022-09-17T08:49:29;23.60;46.30
11491;DHT22;5802;52.832;4.758;2022-09-17T08:52:09;23.60;46.30
11491;DHT22;5802;52.832;4.758;2022-09-17T08:54:41;23.60;46.20
11491;DHT22;5802;52.832;4.758;2022-09-17T08:57:15;23.70;46.10
11491;DHT22;5802;52.832;4.758;2022-09-17T08:59:51;23.80;46.00
11491;DHT22;5802;52.832;4.758;2022-09-17T09:02:31;23.80;45.90
11491;DHT22;5802;52.832;4.758;2022-09-17T09:05:07;23.80;45.80
11491;DHT22;5802;52.832;4.758;2022-09-17T09:07:40;23.80;45.80
11491;DHT22;5802;52.832;4.758;2022-09-17T09:10:15;23.80;45.90
11491;DHT22;5802;52.832;4.758;2022-09-17T09:12:46;23.80;46.00
11491;DHT22;5802;52.832;4.758;2022-09-17T09:15:26;23.80;46.00
11491;DHT22;5802;52.832;4.758;2022-09-17T09:17:58;23.80;46.10
11491;DHT22;5802;52.832;4.758;2022-09-17T09:20:30;23.80;46.00
11491;DHT22;5802;52.832;4.758;2022-09-17T09:23:02;23.80;46.10
11491;DHT22;5802;52.832;4.758;2022-09-17T09:25:39;23.80;46.10
11491;DHT22;5802;52.832;4.758;2022-09-17T09:28:28;23.80;46.00
11491;DHT22;5802;52.832;4.758;2022-09-17T09:31:07;23.80;46.00
11491;DHT22;5802;52.832;4.758;2022-09-17T09:33:39;23.80;46.10
11491;DHT22;5802;52.832;4.758;2022-09-17T09:36:10;23.80;46.20
11491;DHT22;5802;52.832;4.758;2022-09-17T09:38:42;23.80;46.20
11491;DHT22;5802;52.832;4.758;2022-09-17T09:41:17;23.80;46.30
11491;DHT22;5802;52.832;4.758;2022-09-17T09:43:46;23.80;46.10
11491;DHT22;5802;52.832;4.758;2022-09-17T09:46:29;23.80;46.20
11491;DHT22;5802;52.832;4.758;2022-09-17T09:49:06;23.80;46.30
11491;DHT22;5802;52.832;4.758;2022-09-17T09:51:43;23.80;46.00
11491;DHT22;5802;52.832;4.758;2022-09-17T09:54:22;23.80;45.80
11491;DHT22;5802;52.832;4.758;2022-09-17T09:56:56;23.70;45.60
11491;DHT22;5802;52.832;4.758;2022-09-17T09:59:23;23.70;45.40
11491;DHT22;5802;52.832;4.758;2022-09-17T10:01:51;23.70;45.10
11491;DHT22;5802;52.832;4.758;2022-09-17T10:04:23;23.70;44.70
11491;DHT22;5802;52.832;4.758;2022-09-17T10:06:51;23.70;44.40
11491;DHT22;5802;52.832;4.758;2022-09-17T10:09:20;23.70;44.60
11491;DHT22;5802;52.832;4.758;2022-09-17T10:12:03;23.70;44.30
11491;DHT22;5802;52.832;4.758;2022-09-17T10:14:32;23.70;44.10
11491;DHT22;5802;52.832;4.758;2022-09-17T10:17:20;23.70;43.80
11491;DHT22;5802;52.832;4.758;2022-09-17T10:20:13;23.70;43.60
11491;DHT22;5802;52.832;4.758;2022-09-17T10:22:42;23.70;43.40
11491;DHT22;5802;52.832;4.758;2022-09-17T10:25:23;23.60;43.50
11491;DHT22;5802;52.832;4.758;2022-09-17T10:27:52;23.60;43.80
11491;DHT22;5802;52.832;4.758;2022-09-17T10:30:19;23.60;43.90
11491;DHT22;5802;52.832;4.758;2022-09-17T10:33:11;23.60;43.80
11491;DHT22;5802;52.832;4.758;2022-09-17T10:35:57;23.60;43.90
11491;DHT22;5802;52.832;4.758;2022-09-17T10:38:31;23.60;44.10
11491;DHT22;5802;52.832;4.758;2022-09-17T10:41:12;23.60;44.20
11491;DHT22;5802;52.832;4.758;2022-09-17T10:43:40;23.60;44.20
11491;DHT22;5802;52.832;4.758;2022-09-17T10:46:08;23.60;44.30
11491;DHT22;5802;52.832;4.758;2022-09-17T10:48:39;23.60;44.40
11491;DHT22;5802;52.832;4.758;2022-09-17T10:51:10;23.50;44.30
11491;DHT22;5802;52.832;4.758;2022-09-17T10:54:20;23.60;44.40
11491;DHT22;5802;52.832;4.758;2022-09-17T10:56:53;23.60;44.70
11491;DHT22;5802;52.832;4.758;2022-09-17T10:59:40;23.60;45.10
11491;DHT22;5802;52.832;4.758;2022-09-17T11:05:40;23.60;45.90
11491;DHT22;5802;52.832;4.758;2022-09-17T11:08:16;23.60;46.20
11491;DHT22;5802;52.832;4.758;2022-09-17T11:10:52;23.60;46.30
11491;DHT22;5802;52.832;4.758;2022-09-17T11:13:23;23.60;46.40
11491;DHT22;5802;52.832;4.758;2022-09-17T11:16:05;23.60;46.40
11491;DHT22;5802;52.832;4.758;2022-09-17T11:18:38;23.60;46.40
11491;DHT22;5802;52.832;4.758;2022-09-17T11:21:27;23.60;46.50
11491;DHT22;5802;52.832;4.758;2022-09-17T11:24:36;23.70;46.50
11491;DHT22;5802;52.832;4.758;2022-09-17T11:27:20;23.70;46.50
11491;DHT22;5802;52.832;4.758;2022-09-17T11:30:04;23.70;46.40
11491;DHT22;5802;52.832;4.758;2022-09-17T11:32:52;23.70;46.40
11491;DHT22;5802;52.832;4.758;2022-09-17T11:35:25;23.70;46.30
11491;DHT22;5802;52.832;4.758;2022-09-17T11:37:57;23.80;46.20
11491;DHT22;5802;52.832;4.758;2022-09-17T11:40:36;23.80;46.10
11491;DHT22;5802;52.832;4.758;2022-09-17T11:43:11;23.80;46.10
11491;DHT22;5802;52.832;4.758;2022-09-17T11:45:46;23.80;46.10
11491;DHT22;5802;52.832;4.758;2022-09-17T11:48:16;23.80;46.10
11491;DHT22;5802;52.832;4.758;2022-09-17T11:50:46;23.80;46.00
11491;DHT22;5802;52.832;4.758;2022-09-17T11:53:18;23.80;45.90
11491;DHT22;5802;52.832;4.758;2022-09-17T11:55:54;23.90;45.90
11491;DHT22;5802;52.832;4.758;2022-09-17T11:58:27;23.90;45.80
11491;DHT22;5802;52.832;4.758;2022-09-17T12:01:01;23.90;45.80
11491;DHT22;5802;52.832;4.758;2022-09-17T12:03:33;23.90;45.80
11491;DHT22;5802;52.832;4.758;2022-09-17T12:06:06;23.90;45.80
11491;DHT22;5802;52.832;4.758;2022-09-17T12:08:41;23.90;45.90
11491;DHT22;5802;52.832;4.758;2022-09-17T12:11:15;23.90;45.80
11491;DHT22;5802;52.832;4.758;2022-09-17T12:13:46;23.90;45.90
11491;DHT22;5802;52.832;4.758;2022-09-17T12:16:19;23.90;45.80
11491;DHT22;5802;52.832;4.758;2022-09-17T12:18:55;23.90;45.80
11491;DHT22;5802;52.832;4.758;2022-09-17T12:21:28;23.90;45.80
11491;DHT22;5802;52.832;4.758;2022-09-17T12:23:58;23.90;45.90
11491;DHT22;5802;52.832;4.758;2022-09-17T12:26:33;24.00;45.90
11491;DHT22;5802;52.832;4.758;2022-09-17T12:29:18;24.00;45.90
11491;DHT22;5802;52.832;4.758;2022-09-17T12:31:53;24.00;45.90
11491;DHT22;5802;52.832;4.758;2022-09-17T12:34:29;24.00;45.90
11491;DHT22;5802;52.832;4.758;2022-09-17T12:37:07;24.00;45.90
11491;DHT22;5802;52.832;4.758;2022-09-17T12:39:55;24.00;45.90
11491;DHT22;5802;52.832;4.758;2022-09-17T12:42:51;24.10;46.00
11491;DHT22;5802;52.832;4.758;2022-09-17T12:48:46;24.10;45.90
11491;DHT22;5802;52.832;4.758;2022-09-17T12:51:26;24.10;45.90
11491;DHT22;5802;52.832;4.758;2022-09-17T12:54:01;24.00;45.90
11491;DHT22;5802;52.832;4.758;2022-09-17T12:56:45;24.00;45.90
11491;DHT22;5802;52.832;4.758;2022-09-17T12:59:17;24.00;45.90
11491;DHT22;5802;52.832;4.758;2022-09-17T13:01:48;24.00;45.90
11491;DHT22;5802;52.832;4.758;2022-09-17T13:04:32;24.00;46.00
11491;DHT22;5802;52.832;4.758;2022-09-17T13:10:16;24.00;46.00
11491;DHT22;5802;52.832;4.758;2022-09-17T13:12:50;23.90;46.00
11491;DHT22;5802;52.832;4.758;2022-09-17T13:15:40;23.90;46.10
11491;DHT22;5802;52.832;4.758;2022-09-17T13:18:13;23.90;46.10
11491;DHT22;5802;52.832;4.758;2022-09-17T13:20:54;23.90;46.10
11491;DHT22;5802;52.832;4.758;2022-09-17T13:23:34;23.90;46.10
11491;DHT22;5802;52.832;4.758;2022-09-17T13:26:03;23.90;46.10
11491;DHT22;5802;52.832;4.758;2022-09-17T13:28:37;24.00;46.20
11491;DHT22;5802;52.832;4.758;2022-09-17T13:31:06;23.90;46.00
11491;DHT22;5802;52.832;4.758;2022-09-17T13:33:57;24.00;45.90
11491;DHT22;5802;52.832;4.758;2022-09-17T13:36:45;24.00;45.80
11491;DHT22;5802;52.832;4.758;2022-09-17T13:39:36;24.00;45.70
11491;DHT22;5802;52.832;4.758;2022-09-17T13:42:07;24.00;45.60
11491;DHT22;5802;52.832;4.758;2022-09-17T13:44:37;24.00;45.40
11491;DHT22;5802;52.832;4.758;2022-09-17T13:47:17;24.00;45.40
11491;DHT22;5802;52.832;4.758;2022-09-17T13:49:48;24.00;45.30
11491;DHT22;5802;52.832;4.758;2022-09-17T13:52:34;24.00;45.10
11491;DHT22;5802;52.832;4.758;2022-09-17T13:55:02;24.10;45.20
11491;DHT22;5802;52.832;4.758;2022-09-17T13:57:31;24.10;45.10
11491;DHT22;5802;52.832;4.758;2022-09-17T14:00:00;24.10;44.90
11491;DHT22;5802;52.832;4.758;2022-09-17T14:02:36;24.10;44.80
11491;DHT22;5802;52.832;4.758;2022-09-17T14:05:34;24.10;44.80
11491;DHT22;5802;52.832;4.758;2022-09-17T14:08:24;24.10;44.80
11491;DHT22;5802;52.832;4.758;2022-09-17T14:11:00;24.10;44.70
11491;DHT22;5802;52.832;4.758;2022-09-17T14:13:42;24.00;44.70
11491;DHT22;5802;52.832;4.758;2022-09-17T14:19:38;24.00;44.70
11491;DHT22;5802;52.832;4.758;2022-09-17T14:22:13;24.00;44.90
11491;DHT22;5802;52.832;4.758;2022-09-17T14:24:46;23.90;44.90
11491;DHT22;5802;52.832;4.758;2022-09-17T14:27:29;23.90;45.20
11491;DHT22;5802;52.832;4.758;2022-09-17T14:30:13;23.90;45.20
11491;DHT22;5802;52.832;4.758;2022-09-17T14:32:45;23.90;45.30
11491;DHT22;5802;52.832;4.758;2022-09-17T14:35:17;23.90;45.30
11491;DHT22;5802;52.832;4.758;2022-09-17T14:37:49;23.90;45.40
11491;DHT22;5802;52.832;4.758;2022-09-17T14:40:19;24.00;45.40
11491;DHT22;5802;52.832;4.758;2022-09-17T14:42:49;24.00;45.50
11491;DHT22;5802;52.832;4.758;2022-09-17T14:45:23;24.00;45.50
11491;DHT22;5802;52.832;4.758;2022-09-17T14:48:25;24.00;45.50
11491;DHT22;5802;52.832;4.758;2022-09-17T14:51:23;24.10;45.60
11491;DHT22;5802;52.832;4.758;2022-09-17T14:54:07;24.10;45.60
11491;DHT22;5802;52.832;4.758;2022-09-17T14:56:52;24.10;45.60
11491;DHT22;5802;52.832;4.758;2022-09-17T14:59:24;24.10;45.60
11491;DHT22;5802;52.832;4.758;2022-09-17T15:01:52;24.20;45.60
11491;DHT22;5802;52.832;4.758;2022-09-17T15:04:21;24.20;45.60
11491;DHT22;5802;52.832;4.758;2022-09-17T15:06:49;24.20;45.60
11491;DHT22;5802;52.832;4.758;2022-09-17T15:09:18;24.20;45.50
11491;DHT22;5802;52.832;4.758;2022-09-17T15:11:46;24.20;45.50
11491;DHT22;5802;52.832;4.758;2022-09-17T15:14:16;24.20;45.50
11491;DHT22;5802;52.832;4.758;2022-09-17T15:16:47;24.20;45.50
11491;DHT22;5802;52.832;4.758;2022-09-17T15:19:21;24.20;45.50
11491;DHT22;5802;52.832;4.758;2022-09-17T15:21:51;24.20;45.50
11491;DHT22;5802;52.832;4.758;2022-09-17T15:24:31;24.20;45.50
11491;DHT22;5802;52.832;4.758;2022-09-17T15:27:03;24.20;45.50
11491;DHT22;5802;52.832;4.758;2022-09-17T15:29:32;24.20;45.60
11491;DHT22;5802;52.832;4.758;2022-09-17T15:32:02;24.20;45.60
11491;DHT22;5802;52.832;4.758;2022-09-17T15:34:29;24.10;45.60
11491;DHT22;5802;52.832;4.758;2022-09-17T15:37:05;24.10;45.60
11491;DHT22;5802;52.832;4.758;2022-09-17T15:39:39;24.10;45.70
11491;DHT22;5802;52.832;4.758;2022-09-17T15:42:16;24.10;45.70
11491;DHT22;5802;52.832;4.758;2022-09-17T15:44:44;24.00;45.70
11491;DHT22;5802;52.832;4.758;2022-09-17T15:47:33;24.00;45.80
11491;DHT22;5802;52.832;4.758;2022-09-17T15:50:11;24.00;45.80
11491;DHT22;5802;52.832;4.758;2022-09-17T15:52:39;24.00;45.90
11491;DHT22;5802;52.832;4.758;2022-09-17T15:55:31;23.90;45.90
11491;DHT22;5802;52.832;4.758;2022-09-17T15:58:00;23.90;45.90
11491;DHT22;5802;52.832;4.758;2022-09-17T16:00:27;23.90;46.00
11491;DHT22;5802;52.832;4.758;2022-09-17T16:02:55;23.90;46.00
11491;DHT22;5802;52.832;4.758;2022-09-17T16:05:46;23.90;46.10
11491;DHT22;5802;52.832;4.758;2022-09-17T16:08:22;23.90;46.10
11491;DHT22;5802;52.832;4.758;2022-09-17T16:10:49;23.80;46.10
11491;DHT22;5802;52.832;4.758;2022-09-17T16:13:16;23.80;46.10
11491;DHT22;5802;52.832;4.758;2022-09-17T16:15:44;23.80;46.10
11491;DHT22;5802;52.832;4.758;2022-09-17T16:18:12;23.80;46.10
11491;DHT22;5802;52.832;4.758;2022-09-17T16:20:40;23.80;46.20
11491;DHT22;5802;52.832;4.758;2022-09-17T16:23:06;23.80;46.30
11491;DHT22;5802;52.832;4.758;2022-09-17T16:25:36;23.80;46.30
11491;DHT22;5802;52.832;4.758;2022-09-17T16:28:08;23.80;46.40
11491;DHT22;5802;52.832;4.758;2022-09-17T16:30:35;23.70;46.40
11491;DHT22;5802;52.832;4.758;2022-09-17T16:33:02;23.70;46.50
11491;DHT22;5802;52.832;4.758;2022-09-17T16:35:31;23.70;46.50